sensor_id;sensor_type;location;lat;lon;timestamp;pressure;altitude;pressure_sealevel;temperature;humidity
40285;BME280;25997;50.214;19.354;2022-08-19T00:02:06;97306.03;;;23.34;47.14
40285;BME280;25997;50.214;19.354;2022-08-19T00:05:11;97310.47;;;23.35;47.25
40285;BME280;25997;50.214;19.354;2022-08-19T00:08:13;97305.19;;;23.32;47.22
40285;BME280;25997;50.214;19.354;2022-08-19T00:11:16;97309.69;;;23.31;47.15
40285;BME280;25997;50.214;19.354;2022-08-19T00:14:19;97311.69;;;23.26;47.42
40285;BME280;25997;50.214;19.354;2022-08-19T00:17:22;97310.97;;;23.21;47.73
40285;BME280;25997;50.214;19.354;2022-08-19T00:20:26;97304.91;;;23.15;47.68
40285;BME280;25997;50.214;19.354;2022-08-19T00:23:29;97313.94;;;23.12;47.88
40285;BME280;25997;50.214;19.354;2022-08-19T00:26:35;97311.50;;;23.05;48.13
40285;BME280;25997;50.214;19.354;2022-08-19T00:29:38;97311.69;;;23.00;47.96
40285;BME280;25997;50.214;19.354;2022-08-19T00:32:41;97308.41;;;22.92;48.13
40285;BME280;25997;50.214;19.354;2022-08-19T00:35:45;97306.75;;;22.88;48.68
40285;BME280;25997;50.214;19.354;2022-08-19T00:38:48;97310.47;;;22.84;48.80
40285;BME280;25997;50.214;19.354;2022-08-19T00:41:53;97308.00;;;22.78;48.70
40285;BME280;25997;50.214;19.354;2022-08-19T00:44:56;97313.50;;;22.73;49.10
40285;BME280;25997;50.214;19.354;2022-08-19T00:47:59;97310.06;;;22.70;49.08
40285;BME280;25997;50.214;19.354;2022-08-19T00:51:06;97296.84;;;22.65;49.35
40285;BME280;25997;50.214;19.354;2022-08-19T00:54:09;97293.50;;;22.59;49.46
40285;BME280;25997;50.214;19.354;2022-08-19T00:57:16;97292.72;;;22.54;49.30
40285;BME280;25997;50.214;19.354;2022-08-19T01:00:20;97288.63;;;22.44;49.66
40285;BME280;25997;50.214;19.354;2022-08-19T01:03:23;97284.31;;;22.40;49.83
40285;BME280;25997;50.214;19.354;2022-08-19T01:06:27;97284.41;;;22.37;49.95
40285;BME280;25997;50.214;19.354;2022-08-19T01:09:31;97275.56;;;22.35;50.04
40285;BME280;25997;50.214;19.354;2022-08-19T01:12:35;97281.28;;;22.23;49.81
40285;BME280;25997;50.214;19.354;2022-08-19T01:15:41;97273.47;;;22.16;50.08
40285;BME280;25997;50.214;19.354;2022-08-19T01:18:45;97278.81;;;22.16;50.05
40285;BME280;25997;50.214;19.354;2022-08-19T01:21:52;97277.03;;;22.17;50.18
40285;BME280;25997;50.214;19.354;2022-08-19T01:25:00;97271.91;;;22.11;50.70
40285;BME280;25997;50.214;19.354;2022-08-19T01:28:03;97273.91;;;22.04;50.68
40285;BME280;25997;50.214;19.354;2022-08-19T01:31:06;97263.44;;;21.95;51.00
40285;BME280;25997;50.214;19.354;2022-08-19T01:34:09;97259.38;;;21.84;50.99
40285;BME280;25997;50.214;19.354;2022-08-19T01:37:13;97275.69;;;21.75;51.43
40285;BME280;25997;50.214;19.354;2022-08-19T01:40:19;97272.25;;;21.70;51.66
40285;BME280;25997;50.214;19.354;2022-08-19T01:43:22;97263.50;;;21.65;51.35
40285;BME280;25997;50.214;19.354;2022-08-19T01:46:25;97268.81;;;21.66;51.41
40285;BME280;25997;50.214;19.354;2022-08-19T01:49:27;97265.06;;;21.72;51.20
40285;BME280;25997;50.214;19.354;2022-08-19T01:52:30;97271.16;;;21.77;51.22
40285;BME280;25997;50.214;19.354;2022-08-19T01:55:35;97273.75;;;21.80;51.08
40285;BME280;25997;50.214;19.354;2022-08-19T01:58:41;97277.19;;;21.83;50.83
40285;BME280;25997;50.214;19.354;2022-08-19T02:01:43;97273.50;;;21.87;50.66
40285;BME280;25997;50.214;19.354;2022-08-19T02:04:46;97249.34;;;21.90;50.46
40285;BME280;25997;50.214;19.354;2022-08-19T02:07:49;97245.84;;;21.88;50.70
40285;BME280;25997;50.214;19.354;2022-08-19T02:10:54;97249.56;;;21.84;51.01
40285;BME280;25997;50.214;19.354;2022-08-19T02:13:57;97246.81;;;21.86;51.11
40285;BME280;25997;50.214;19.354;2022-08-19T02:17:00;97239.72;;;21.85;50.93
40285;BME280;25997;50.214;19.354;2022-08-19T02:20:03;97242.34;;;21.86;50.49
40285;BME280;25997;50.214;19.354;2022-08-19T02:23:07;97237.81;;;21.88;50.92
40285;BME280;25997;50.214;19.354;2022-08-19T02:26:12;97240.53;;;21.87;50.65
40285;BME280;25997;50.214;19.354;2022-08-19T02:29:15;97243.31;;;21.84;50.69
40285;BME280;25997;50.214;19.354;2022-08-19T02:32:18;97235.31;;;21.84;50.70
40285;BME280;25997;50.214;19.354;2022-08-19T02:35:21;97237.91;;;21.85;50.53
40285;BME280;25997;50.214;19.354;2022-08-19T02:38:23;97249.56;;;21.84;51.02
40285;BME280;25997;50.214;19.354;2022-08-19T02:41:32;97250.41;;;21.85;50.88
40285;BME280;25997;50.214;19.354;2022-08-19T02:44:35;97254.75;;;21.89;50.76
40285;BME280;25997;50.214;19.354;2022-08-19T02:47:38;97247.56;;;21.91;50.83
40285;BME280;25997;50.214;19.354;2022-08-19T02:50:40;97260.09;;;21.89;50.40
40285;BME280;25997;50.214;19.354;2022-08-19T02:53:43;97248.47;;;21.90;50.67
40285;BME280;25997;50.214;19.354;2022-08-19T02:56:47;97247.56;;;21.91;50.43
40285;BME280;25997;50.214;19.354;2022-08-19T02:59:49;97252.09;;;21.87;50.60
40285;BME280;25997;50.214;19.354;2022-08-19T03:02:52;97243.25;;;21.85;51.00
40285;BME280;25997;50.214;19.354;2022-08-19T03:06:06;97249.44;;;21.87;51.25
40285;BME280;25997;50.214;19.354;2022-08-19T03:09:10;97249.41;;;21.89;50.74
40285;BME280;25997;50.214;19.354;2022-08-19T03:12:14;97238.72;;;21.89;50.77
40285;BME280;25997;50.214;19.354;2022-08-19T03:15:17;97244.97;;;21.88;50.80
40285;BME280;25997;50.214;19.354;2022-08-19T03:18:19;97241.41;;;21.87;50.38
40285;BME280;25997;50.214;19.354;2022-08-19T03:21:24;97250.31;;;21.88;50.62
40285;BME280;25997;50.214;19.354;2022-08-19T03:24:27;97262.03;;;21.84;50.67
40285;BME280;25997;50.214;19.354;2022-08-19T03:27:31;97258.41;;;21.86;50.53
40285;BME280;25997;50.214;19.354;2022-08-19T03:30:34;97256.56;;;21.87;50.57
40285;BME280;25997;50.214;19.354;2022-08-19T03:33:36;97252.09;;;21.87;50.46
40285;BME280;25997;50.214;19.354;2022-08-19T03:36:39;97260.13;;;21.87;50.53
40285;BME280;25997;50.214;19.354;2022-08-19T03:39:42;97260.03;;;21.90;50.43
40285;BME280;25997;50.214;19.354;2022-08-19T03:42:46;97256.56;;;21.87;50.66
40285;BME280;25997;50.214;19.354;2022-08-19T03:45:48;97264.50;;;21.90;50.90
40285;BME280;25997;50.214;19.354;2022-08-19T03:48:54;97252.09;;;21.89;50.75
40285;BME280;25997;50.214;19.354;2022-08-19T03:51:58;97237.16;;;21.82;50.74
40285;BME280;25997;50.214;19.354;2022-08-19T03:55:01;97231.94;;;21.77;51.26
40285;BME280;25997;50.214;19.354;2022-08-19T03:58:05;97233.88;;;21.72;51.09
40285;BME280;25997;50.214;19.354;2022-08-19T04:01:09;97239.28;;;21.71;51.12
40285;BME280;25997;50.214;19.354;2022-08-19T04:04:11;97246.34;;;21.73;51.15
40285;BME280;25997;50.214;19.354;2022-08-19T04:07:15;97251.47;;;21.79;50.60
40285;BME280;25997;50.214;19.354;2022-08-19T04:10:22;97263.69;;;21.88;50.38
40285;BME280;25997;50.214;19.354;2022-08-19T04:13:26;97259.91;;;21.95;50.19
40285;BME280;25997;50.214;19.354;2022-08-19T04:16:29;97268.63;;;22.01;50.40
40285;BME280;25997;50.214;19.354;2022-08-19T04:19:31;97279.91;;;22.11;49.88
40285;BME280;25997;50.214;19.354;2022-08-19T04:22:34;97273.38;;;22.19;49.87
40285;BME280;25997;50.214;19.354;2022-08-19T04:25:38;97269.53;;;22.28;49.89
40285;BME280;25997;50.214;19.354;2022-08-19T04:28:43;97274.88;;;22.28;49.77
40285;BME280;25997;50.214;19.354;2022-08-19T04:31:45;97290.84;;;22.31;49.68
40285;BME280;25997;50.214;19.354;2022-08-19T04:34:48;97300.53;;;22.35;49.95
40285;BME280;25997;50.214;19.354;2022-08-19T04:37:50;97309.09;;;22.45;49.93
40285;BME280;25997;50.214;19.354;2022-08-19T04:40:53;97306.09;;;22.55;49.23
40285;BME280;25997;50.214;19.354;2022-08-19T04:44:14;97315.50;;;22.67;49.36
40285;BME280;25997;50.214;19.354;2022-08-19T04:47:18;97313.41;;;22.76;49.02
40285;BME280;25997;50.214;19.354;2022-08-19T04:50:21;97317.53;;;22.86;49.41
40285;BME280;25997;50.214;19.354;2022-08-19T04:53:24;97319.69;;;23.02;48.83
40285;BME280;25997;50.214;19.354;2022-08-19T04:56:29;97319.91;;;23.20;48.71
40285;BME280;25997;50.214;19.354;2022-08-19T04:59:33;97325.56;;;23.37;49.10
40285;BME280;25997;50.214;19.354;2022-08-19T05:02:36;97328.56;;;23.53;48.40
40285;BME280;25997;50.214;19.354;2022-08-19T05:05:40;97324.31;;;23.71;48.41
40285;BME280;25997;50.214;19.354;2022-08-19T05:08:43;97314.72;;;23.88;48.48
40285;BME280;25997;50.214;19.354;2022-08-19T05:11:46;97322.41;;;23.97;47.78
40285;BME280;25997;50.214;19.354;2022-08-19T05:14:52;97323.03;;;24.04;47.57
40285;BME280;25997;50.214;19.354;2022-08-19T05:17:54;97327.41;;;24.06;47.27
40285;BME280;25997;50.214;19.354;2022-08-19T05:21:16;97320.00;;;24.13;47.42
40285;BME280;25997;50.214;19.354;2022-08-19T05:24:36;97319.75;;;24.19;47.50
40285;BME280;25997;50.214;19.354;2022-08-19T05:27:39;97308.44;;;24.32;47.05
40285;BME280;25997;50.214;19.354;2022-08-19T05:30:43;97307.94;;;24.46;46.96
40285;BME280;25997;50.214;19.354;2022-08-19T05:33:46;97319.97;;;24.58;46.45
40285;BME280;25997;50.214;19.354;2022-08-19T05:36:49;97320.22;;;24.73;46.53
40285;BME280;25997;50.214;19.354;2022-08-19T05:39:56;97333.78;;;24.90;46.03
40285;BME280;25997;50.214;19.354;2022-08-19T05:42:58;97331.19;;;25.09;45.53
40285;BME280;25997;50.214;19.354;2022-08-19T05:46:02;97336.75;;;25.26;45.22
40285;BME280;25997;50.214;19.354;2022-08-19T05:49:07;97329.78;;;25.41;45.28
40285;BME280;25997;50.214;19.354;2022-08-19T05:52:11;97334.78;;;25.50;44.93
40285;BME280;25997;50.214;19.354;2022-08-19T05:55:16;97331.69;;;25.59;44.61
40285;BME280;25997;50.214;19.354;2022-08-19T05:58:21;97332.41;;;25.62;44.86
40285;BME280;25997;50.214;19.354;2022-08-19T06:01:26;97341.06;;;25.69;44.12
40285;BME280;25997;50.214;19.354;2022-08-19T06:04:29;97335.69;;;25.69;44.26
40285;BME280;25997;50.214;19.354;2022-08-19T06:07:32;97332.75;;;25.75;43.87
40285;BME280;25997;50.214;19.354;2022-08-19T06:10:34;97339.44;;;25.85;44.01
40285;BME280;25997;50.214;19.354;2022-08-19T06:13:37;97329.03;;;25.96;44.14
40285;BME280;25997;50.214;19.354;2022-08-19T06:16:42;97333.34;;;26.00;43.70
40285;BME280;25997;50.214;19.354;2022-08-19T06:19:45;97336.03;;;26.00;43.57
40285;BME280;25997;50.214;19.354;2022-08-19T06:22:49;97352.53;;;26.13;43.57
40285;BME280;25997;50.214;19.354;2022-08-19T06:25:52;97362.84;;;26.22;43.38
40285;BME280;25997;50.214;19.354;2022-08-19T06:28:54;97369.63;;;26.30;43.01
40285;BME280;25997;50.214;19.354;2022-08-19T06:32:00;97370.69;;;26.45;43.21
40285;BME280;25997;50.214;19.354;2022-08-19T06:35:04;97365.47;;;26.61;43.12
40285;BME280;25997;50.214;19.354;2022-08-19T06:38:06;97369.38;;;26.72;42.92
40285;BME280;25997;50.214;19.354;2022-08-19T06:41:10;97359.59;;;26.88;42.41
40285;BME280;25997;50.214;19.354;2022-08-19T06:44:13;97356.72;;;27.10;42.18
40285;BME280;25997;50.214;19.354;2022-08-19T06:47:19;97362.28;;;27.24;41.42
40285;BME280;25997;50.214;19.354;2022-08-19T06:50:23;97371.38;;;27.39;41.41
40285;BME280;25997;50.214;19.354;2022-08-19T06:53:25;97375.97;;;27.54;41.28
40285;BME280;25997;50.214;19.354;2022-08-19T06:56:30;97378.91;;;27.49;40.71
40285;BME280;25997;50.214;19.354;2022-08-19T06:59:35;97383.84;;;27.41;40.97
40285;BME280;25997;50.214;19.354;2022-08-19T07:02:39;97389.09;;;27.44;41.17
40285;BME280;25997;50.214;19.354;2022-08-19T07:05:42;97392.50;;;27.48;40.95
40285;BME280;25997;50.214;19.354;2022-08-19T07:08:46;97391.94;;;27.41;41.13
40285;BME280;25997;50.214;19.354;2022-08-19T07:11:51;97396.16;;;27.47;41.15
40285;BME280;25997;50.214;19.354;2022-08-19T07:14:54;97396.06;;;27.65;40.84
40285;BME280;25997;50.214;19.354;2022-08-19T07:17:58;97398.97;;;27.78;40.76
40285;BME280;25997;50.214;19.354;2022-08-19T07:21:05;97406.88;;;27.98;39.85
40285;BME280;25997;50.214;19.354;2022-08-19T07:24:07;97403.06;;;28.19;40.25
40285;BME280;25997;50.214;19.354;2022-08-19T07:27:10;97414.28;;;28.44;39.61
40285;BME280;25997;50.214;19.354;2022-08-19T07:30:13;97423.22;;;28.62;39.99
40285;BME280;25997;50.214;19.354;2022-08-19T07:33:17;97419.78;;;28.74;40.01
40285;BME280;25997;50.214;19.354;2022-08-19T07:36:23;97424.25;;;28.91;39.53
40285;BME280;25997;50.214;19.354;2022-08-19T07:39:28;97419.63;;;28.93;39.11
40285;BME280;25997;50.214;19.354;2022-08-19T07:42:32;97429.66;;;28.91;39.46
40285;BME280;25997;50.214;19.354;2022-08-19T07:45:35;97426.25;;;28.87;39.69
40285;BME280;25997;50.214;19.354;2022-08-19T07:48:40;97425.81;;;28.95;39.95
40285;BME280;25997;50.214;19.354;2022-08-19T07:51:44;97426.94;;;29.06;39.49
40285;BME280;25997;50.214;19.354;2022-08-19T07:54:47;97437.56;;;29.09;39.79
40285;BME280;25997;50.214;19.354;2022-08-19T07:57:50;97446.94;;;29.19;39.24
40285;BME280;25997;50.214;19.354;2022-08-19T08:00:54;97455.03;;;29.35;38.97
40285;BME280;25997;50.214;19.354;2022-08-19T08:03:58;97445.66;;;29.41;38.97
40285;BME280;25997;50.214;19.354;2022-08-19T08:07:21;97448.88;;;29.47;39.36
40285;BME280;25997;50.214;19.354;2022-08-19T08:10:44;97448.88;;;29.47;38.97
40285;BME280;25997;50.214;19.354;2022-08-19T08:13:48;97452.28;;;29.66;39.37
40285;BME280;25997;50.214;19.354;2022-08-19T08:16:51;97465.28;;;29.89;38.72
40285;BME280;25997;50.214;19.354;2022-08-19T08:19:56;97464.72;;;29.98;38.95
40285;BME280;25997;50.214;19.354;2022-08-19T08:22:58;97465.38;;;30.18;38.38
40285;BME280;25997;50.214;19.354;2022-08-19T08:26:19;97460.63;;;30.49;38.70
40285;BME280;25997;50.214;19.354;2022-08-19T08:29:21;97465.97;;;30.79;38.42
40285;BME280;25997;50.214;19.354;2022-08-19T08:32:24;97461.72;;;31.16;37.51
40285;BME280;25997;50.214;19.354;2022-08-19T08:35:28;97457.16;;;31.57;36.76
40285;BME280;25997;50.214;19.354;2022-08-19T08:38:30;97470.06;;;31.93;36.14
40285;BME280;25997;50.214;19.354;2022-08-19T08:41:41;97458.81;;;32.24;34.72
40285;BME280;25997;50.214;19.354;2022-08-19T08:44:52;97455.44;;;32.71;33.74
40285;BME280;25997;50.214;19.354;2022-08-19T08:47:59;97451.75;;;32.59;33.90
40285;BME280;25997;50.214;19.354;2022-08-19T08:51:09;97451.75;;;32.59;33.64
40285;BME280;25997;50.214;19.354;2022-08-19T08:54:16;97457.94;;;32.61;32.56
40285;BME280;25997;50.214;19.354;2022-08-19T08:57:25;97448.81;;;32.37;32.65
40285;BME280;25997;50.214;19.354;2022-08-19T09:00:33;97447.63;;;32.29;32.18
40285;BME280;25997;50.214;19.354;2022-08-19T09:03:37;97434.56;;;32.21;33.12
40285;BME280;25997;50.214;19.354;2022-08-19T09:06:50;97439.22;;;32.69;32.92
40285;BME280;25997;50.214;19.354;2022-08-19T09:10:01;97440.59;;;33.00;31.10
40285;BME280;25997;50.214;19.354;2022-08-19T09:13:17;97433.75;;;33.18;31.09
40285;BME280;25997;50.214;19.354;2022-08-19T09:16:23;97437.75;;;33.02;30.62
40285;BME280;25997;50.214;19.354;2022-08-19T09:19:28;97436.94;;;33.12;30.50
40285;BME280;25997;50.214;19.354;2022-08-19T09:22:32;97428.56;;;33.15;30.39
40285;BME280;25997;50.214;19.354;2022-08-19T09:25:35;97424.75;;;33.18;30.25
40285;BME280;25997;50.214;19.354;2022-08-19T09:28:37;97437.22;;;33.33;29.66
40285;BME280;25997;50.214;19.354;2022-08-19T09:31:43;97424.88;;;33.40;30.08
40285;BME280;25997;50.214;19.354;2022-08-19T09:34:45;97436.59;;;33.17;29.33
40285;BME280;25997;50.214;19.354;2022-08-19T09:37:50;97434.28;;;32.87;29.34
40285;BME280;25997;50.214;19.354;2022-08-19T09:40:52;97436.47;;;33.18;29.46
40285;BME280;25997;50.214;19.354;2022-08-19T09:43:56;97443.94;;;33.64;28.69
40285;BME280;25997;50.214;19.354;2022-08-19T09:46:59;97436.78;;;33.74;28.29
40285;BME280;25997;50.214;19.354;2022-08-19T09:50:03;97430.28;;;33.87;28.23
40285;BME280;25997;50.214;19.354;2022-08-19T09:53:07;97435.13;;;33.60;28.38
40285;BME280;25997;50.214;19.354;2022-08-19T09:56:11;97426.69;;;33.63;28.74
40285;BME280;25997;50.214;19.354;2022-08-19T09:59:14;97429.81;;;33.93;28.73
40285;BME280;25997;50.214;19.354;2022-08-19T10:02:16;97435.84;;;34.43;28.00
40285;BME280;25997;50.214;19.354;2022-08-19T10:05:19;97429.94;;;35.04;27.80
40285;BME280;25997;50.214;19.354;2022-08-19T10:08:41;97433.03;;;35.11;27.83
40285;BME280;25997;50.214;19.354;2022-08-19T10:11:44;97438.38;;;34.90;27.39
40285;BME280;25997;50.214;19.354;2022-08-19T10:14:49;97439.09;;;34.59;27.34
40285;BME280;25997;50.214;19.354;2022-08-19T10:17:52;97441.13;;;34.11;28.05
40285;BME280;25997;50.214;19.354;2022-08-19T10:21:05;97446.63;;;33.87;27.70
40285;BME280;25997;50.214;19.354;2022-08-19T10:24:11;97446.75;;;33.86;28.64
40285;BME280;25997;50.214;19.354;2022-08-19T10:27:13;97444.00;;;33.75;28.67
40285;BME280;25997;50.214;19.354;2022-08-19T10:30:16;97442.69;;;34.48;28.24
40285;BME280;25997;50.214;19.354;2022-08-19T10:33:18;97423.63;;;34.81;27.43
40285;BME280;25997;50.214;19.354;2022-08-19T10:36:22;97427.19;;;34.93;27.55
40285;BME280;25997;50.214;19.354;2022-08-19T10:39:27;97435.03;;;34.64;25.54
40285;BME280;25997;50.214;19.354;2022-08-19T10:42:31;97431.91;;;34.47;26.62
40285;BME280;25997;50.214;19.354;2022-08-19T10:45:34;97430.78;;;34.49;26.77
40285;BME280;25997;50.214;19.354;2022-08-19T10:48:38;97432.41;;;34.85;26.13
40285;BME280;25997;50.214;19.354;2022-08-19T10:51:41;97426.84;;;34.53;26.22
40285;BME280;25997;50.214;19.354;2022-08-19T10:55:04;97421.63;;;34.83;25.59
40285;BME280;25997;50.214;19.354;2022-08-19T10:58:25;97427.34;;;35.45;25.77
40285;BME280;25997;50.214;19.354;2022-08-19T11:01:27;97421.28;;;35.85;25.86
40285;BME280;25997;50.214;19.354;2022-08-19T11:04:31;97422.59;;;35.90;25.63
40285;BME280;25997;50.214;19.354;2022-08-19T11:07:34;97414.97;;;35.94;25.01
40285;BME280;25997;50.214;19.354;2022-08-19T11:10:41;97410.72;;;36.01;24.57
40285;BME280;25997;50.214;19.354;2022-08-19T11:13:44;97402.31;;;36.34;24.60
40285;BME280;25997;50.214;19.354;2022-08-19T11:16:48;97397.56;;;36.66;25.44
40285;BME280;25997;50.214;19.354;2022-08-19T11:19:50;97405.72;;;37.36;24.37
40285;BME280;25997;50.214;19.354;2022-08-19T11:22:53;97401.09;;;37.37;24.05
40285;BME280;25997;50.214;19.354;2022-08-19T11:25:57;97397.50;;;37.46;24.22
40285;BME280;25997;50.214;19.354;2022-08-19T11:29:00;97400.56;;;38.00;24.08
40285;BME280;25997;50.214;19.354;2022-08-19T11:32:04;97396.16;;;38.36;23.25
40285;BME280;25997;50.214;19.354;2022-08-19T11:35:07;97393.88;;;38.78;23.42
40285;BME280;25997;50.214;19.354;2022-08-19T11:38:12;97393.47;;;39.00;23.09
40285;BME280;25997;50.214;19.354;2022-08-19T11:41:18;97397.31;;;38.80;23.27
40285;BME280;25997;50.214;19.354;2022-08-19T11:44:21;97394.84;;;38.86;23.39
40285;BME280;25997;50.214;19.354;2022-08-19T11:47:24;97394.97;;;38.85;22.88
40285;BME280;25997;50.214;19.354;2022-08-19T11:50:27;97392.53;;;38.82;22.89
40285;BME280;25997;50.214;19.354;2022-08-19T11:53:29;97397.50;;;38.96;23.11
40285;BME280;25997;50.214;19.354;2022-08-19T11:56:33;97403.28;;;39.02;21.91
40285;BME280;25997;50.214;19.354;2022-08-19T11:59:36;97400.31;;;38.86;21.85
40285;BME280;25997;50.214;19.354;2022-08-19T12:02:39;97399.78;;;39.00;22.15
40285;BME280;25997;50.214;19.354;2022-08-19T12:05:41;97405.03;;;39.48;22.04
40285;BME280;25997;50.214;19.354;2022-08-19T12:08:44;97403.88;;;39.68;21.67
40285;BME280;25997;50.214;19.354;2022-08-19T12:11:49;97405.97;;;39.75;21.48
40285;BME280;25997;50.214;19.354;2022-08-19T12:14:52;97401.53;;;39.01;21.94
40285;BME280;25997;50.214;19.354;2022-08-19T12:17:59;97399.03;;;38.44;22.37
40285;BME280;25997;50.214;19.354;2022-08-19T12:21:01;97400.41;;;37.83;22.77
40285;BME280;25997;50.214;19.354;2022-08-19T12:24:05;97394.72;;;37.17;22.59
40285;BME280;25997;50.214;19.354;2022-08-19T12:27:09;97395.53;;;37.57;22.65
40285;BME280;25997;50.214;19.354;2022-08-19T12:30:13;97391.44;;;38.28;22.26
40285;BME280;25997;50.214;19.354;2022-08-19T12:33:15;97387.19;;;38.44;22.06
40285;BME280;25997;50.214;19.354;2022-08-19T12:36:18;97390.41;;;39.03;21.68
40285;BME280;25997;50.214;19.354;2022-08-19T12:39:21;97376.06;;;38.82;21.17
40285;BME280;25997;50.214;19.354;2022-08-19T12:42:25;97384.72;;;38.87;21.56
40285;BME280;25997;50.214;19.354;2022-08-19T12:45:27;97383.09;;;38.67;21.06
40285;BME280;25997;50.214;19.354;2022-08-19T12:48:30;97386.94;;;38.27;21.46
40285;BME280;25997;50.214;19.354;2022-08-19T12:51:33;97381.44;;;38.37;22.03
40285;BME280;25997;50.214;19.354;2022-08-19T12:54:36;97380.69;;;38.45;22.16
40285;BME280;25997;50.214;19.354;2022-08-19T12:57:40;97367.41;;;38.40;22.28
40285;BME280;25997;50.214;19.354;2022-08-19T13:00:43;97369.81;;;38.53;22.42
40285;BME280;25997;50.214;19.354;2022-08-19T13:03:46;97353.78;;;39.12;21.90
40285;BME280;25997;50.214;19.354;2022-08-19T13:06:49;97366.94;;;39.53;21.45
40285;BME280;25997;50.214;19.354;2022-08-19T13:09:51;97356.06;;;40.05;21.62
40285;BME280;25997;50.214;19.354;2022-08-19T13:12:57;97365.03;;;40.32;21.58
40285;BME280;25997;50.214;19.354;2022-08-19T13:16:00;97354.44;;;40.71;21.12
40285;BME280;25997;50.214;19.354;2022-08-19T13:19:04;97359.84;;;40.55;21.19
40285;BME280;25997;50.214;19.354;2022-08-19T13:22:08;97358.84;;;40.38;20.92
40285;BME280;25997;50.214;19.354;2022-08-19T13:25:12;97358.25;;;40.53;20.74
40285;BME280;25997;50.214;19.354;2022-08-19T13:28:16;97356.09;;;40.38;20.77
40285;BME280;25997;50.214;19.354;2022-08-19T13:31:19;97355.00;;;40.23;20.52
40285;BME280;25997;50.214;19.354;2022-08-19T13:34:54;97353.22;;;40.40;20.71
40285;BME280;25997;50.214;19.354;2022-08-19T13:37:56;97357.81;;;40.31;20.77
40285;BME280;25997;50.214;19.354;2022-08-19T13:41:04;97350.47;;;40.74;19.87
40285;BME280;25997;50.214;19.354;2022-08-19T13:44:09;97351.34;;;41.24;19.99
40285;BME280;25997;50.214;19.354;2022-08-19T13:47:12;97350.94;;;41.03;19.57
40285;BME280;25997;50.214;19.354;2022-08-19T13:50:17;97349.91;;;40.62;19.78
40285;BME280;25997;50.214;19.354;2022-08-19T13:53:19;97351.78;;;40.54;20.46
40285;BME280;25997;50.214;19.354;2022-08-19T13:56:22;97351.69;;;40.79;20.27
40285;BME280;25997;50.214;19.354;2022-08-19T13:59:26;97354.19;;;40.98;20.12
40285;BME280;25997;50.214;19.354;2022-08-19T14:02:29;97346.84;;;41.07;20.19
40285;BME280;25997;50.214;19.354;2022-08-19T14:05:32;97350.41;;;40.99;19.73
40285;BME280;25997;50.214;19.354;2022-08-19T14:08:34;97352.41;;;40.89;20.21
40285;BME280;25997;50.214;19.354;2022-08-19T14:11:40;97344.09;;;40.73;19.95
40285;BME280;25997;50.214;19.354;2022-08-19T14:14:44;97344.78;;;40.75;20.53
40285;BME280;25997;50.214;19.354;2022-08-19T14:17:47;97343.34;;;41.05;19.81
40285;BME280;25997;50.214;19.354;2022-08-19T14:20:49;97348.47;;;41.42;19.69
40285;BME280;25997;50.214;19.354;2022-08-19T14:23:52;97347.44;;;41.51;19.74
40285;BME280;25997;50.214;19.354;2022-08-19T14:26:55;97343.16;;;41.81;19.06
40285;BME280;25997;50.214;19.354;2022-08-19T14:30:01;97338.19;;;41.76;19.16
40285;BME280;25997;50.214;19.354;2022-08-19T14:33:04;97340.91;;;41.60;19.48
40285;BME280;25997;50.214;19.354;2022-08-19T14:36:08;97336.50;;;41.17;19.73
40285;BME280;25997;50.214;19.354;2022-08-19T14:39:10;97336.22;;;41.28;19.27
40285;BME280;25997;50.214;19.354;2022-08-19T14:42:13;97335.31;;;41.20;19.43
40285;BME280;25997;50.214;19.354;2022-08-19T14:45:17;97332.22;;;41.23;19.22
40285;BME280;25997;50.214;19.354;2022-08-19T14:48:20;97335.81;;;41.07;20.03
40285;BME280;25997;50.214;19.354;2022-08-19T14:51:23;97323.97;;;40.81;20.41
40285;BME280;25997;50.214;19.354;2022-08-19T14:54:27;97319.63;;;40.70;20.25
40285;BME280;25997;50.214;19.354;2022-08-19T14:57:30;97319.28;;;40.39;20.21
40285;BME280;25997;50.214;19.354;2022-08-19T15:00:34;97308.78;;;40.09;20.05
40285;BME280;25997;50.214;19.354;2022-08-19T15:03:37;97311.22;;;39.87;20.64
40285;BME280;25997;50.214;19.354;2022-08-19T15:06:41;97300.69;;;39.64;20.67
40285;BME280;25997;50.214;19.354;2022-08-19T15:09:44;97294.97;;;39.40;21.25
40285;BME280;25997;50.214;19.354;2022-08-19T15:12:46;97292.53;;;39.37;21.47
40285;BME280;25997;50.214;19.354;2022-08-19T15:15:50;97280.13;;;39.33;21.54
40285;BME280;25997;50.214;19.354;2022-08-19T15:18:55;97292.28;;;39.31;21.60
40285;BME280;25997;50.214;19.354;2022-08-19T15:21:58;97291.72;;;39.27;21.55
40285;BME280;25997;50.214;19.354;2022-08-19T15:25:01;97290.78;;;39.19;21.76
40285;BME280;25997;50.214;19.354;2022-08-19T15:28:04;97283.66;;;39.08;21.78
40285;BME280;25997;50.214;19.354;2022-08-19T15:31:09;97291.56;;;38.93;21.65
40285;BME280;25997;50.214;19.354;2022-08-19T15:34:12;97284.53;;;38.54;22.03
40285;BME280;25997;50.214;19.354;2022-08-19T15:37:15;97285.53;;;38.36;22.11
40285;BME280;25997;50.214;19.354;2022-08-19T15:40:20;97282.09;;;38.14;22.57
40285;BME280;25997;50.214;19.354;2022-08-19T15:43:22;97272.59;;;37.63;22.68
40285;BME280;25997;50.214;19.354;2022-08-19T15:46:28;97267.22;;;36.94;23.39
40285;BME280;25997;50.214;19.354;2022-08-19T15:49:31;97254.19;;;36.18;24.28
40285;BME280;25997;50.214;19.354;2022-08-19T15:52:33;97255.28;;;35.55;25.04
40285;BME280;25997;50.214;19.354;2022-08-19T15:55:42;97239.94;;;35.02;25.75
40285;BME280;25997;50.214;19.354;2022-08-19T15:58:45;97235.13;;;34.51;26.03
40285;BME280;25997;50.214;19.354;2022-08-19T16:02:06;97249.91;;;34.04;25.93
40285;BME280;25997;50.214;19.354;2022-08-19T16:05:27;97257.41;;;33.68;26.70